sensor_id;sensor_type;location;lat;lon;timestamp;P1;durP1;ratioP1;P2;durP2;ratioP2
63114;SDS011;49208;50.874;6.466;2023-04-03T06:01:04;10.35;;;4.32;;
63114;SDS011;49208;50.874;6.466;2023-04-03T06:03:30;9.73;;;4.47;;
63114;SDS011;49208;50.874;6.466;2023-04-03T06:05:56;13.25;;;5.00;;
63114;SDS011;49208;50.874;6.466;2023-04-03T06:08:21;12.20;;;5.13;;
63114;SDS011;49208;50.874;6.466;2023-04-03T06:10:47;8.77;;;3.38;;
63114;SDS011;49208;50.874;6.466;2023-04-03T06:13:12;8.48;;;3.95;;
63114;SDS011;49208;50.874;6.466;2023-04-03T06:15:38;6.63;;;4.53;;
63114;SDS011;49208;50.874;6.466;2023-04-03T06:18:05;12.17;;;4.13;;
63114;SDS011;49208;50.874;6.466;2023-04-03T06:20:31;7.30;;;3.72;;
63114;SDS011;49208;50.874;6.466;2023-04-03T06:22:56;8.52;;;4.07;;
63114;SDS011;49208;50.874;6.466;2023-04-03T06:25:22;8.85;;;4.63;;
63114;SDS011;49208;50.874;6.466;2023-04-03T06:27:48;11.60;;;4.55;;
63114;SDS011;49208;50.874;6.466;2023-04-03T06:30:13;7.40;;;3.17;;
63114;SDS011;49208;50.874;6.466;2023-04-03T06:32:39;7.45;;;3.22;;
63114;SDS011;49208;50.874;6.466;2023-04-03T06:35:04;8.02;;;3.40;;
63114;SDS011;49208;50.874;6.466;2023-04-03T06:37:30;6.55;;;3.67;;
63114;SDS011;49208;50.874;6.466;2023-04-03T06:39:57;5.50;;;3.35;;
63114;SDS011;49208;50.874;6.466;2023-04-03T06:42:23;5.93;;;3.05;;
63114;SDS011;49208;50.874;6.466;2023-04-03T06:44:48;7.60;;;3.63;;
63114;SDS011;49208;50.874;6.466;2023-04-03T06:47:14;5.95;;;3.00;;
63114;SDS011;49208;50.874;6.466;2023-04-03T06:49:41;8.82;;;3.28;;
63114;SDS011;49208;50.874;6.466;2023-04-03T06:52:07;7.30;;;3.03;;
63114;SDS011;49208;50.874;6.466;2023-04-03T06:54:32;6.55;;;3.05;;
63114;SDS011;49208;50.874;6.466;2023-04-03T06:56:58;5.20;;;2.95;;
63114;SDS011;49208;50.874;6.466;2023-04-03T06:59:24;4.97;;;2.88;;
63114;SDS011;49208;50.874;6.466;2023-04-03T07:01:49;6.65;;;2.88;;
63114;SDS011;49208;50.874;6.466;2023-04-03T07:04:15;5.75;;;3.00;;
63114;SDS011;49208;50.874;6.466;2023-04-03T07:06:41;5.47;;;2.78;;
63114;SDS011;49208;50.874;6.466;2023-04-03T07:09:07;4.93;;;2.90;;
63114;SDS011;49208;50.874;6.466;2023-04-03T07:11:34;5.40;;;2.70;;
63114;SDS011;49208;50.874;6.466;2023-04-03T07:14:01;7.43;;;2.95;;
63114;SDS011;49208;50.874;6.466;2023-04-03T07:16:26;5.30;;;2.83;;
63114;SDS011;49208;50.874;6.466;2023-04-03T07:18:52;6.80;;;2.72;;
63114;SDS011;49208;50.874;6.466;2023-04-03T07:21:17;5.68;;;3.10;;
63114;SDS011;49208;50.874;6.466;2023-04-03T07:23:42;6.10;;;2.95;;
63114;SDS011;49208;50.874;6.466;2023-04-03T07:26:08;5.75;;;3.10;;
63114;SDS011;49208;50.874;6.466;2023-04-03T07:28:34;5.43;;;2.70;;
63114;SDS011;49208;50.874;6.466;2023-04-03T07:31:00;5.63;;;2.67;;
63114;SDS011;49208;50.874;6.466;2023-04-03T07:33:31;6.15;;;2.45;;
63114;SDS011;49208;50.874;6.466;2023-04-03T07:35:57;5.30;;;2.60;;
63114;SDS011;49208;50.874;6.466;2023-04-03T07:38:23;5.10;;;2.83;;
63114;SDS011;49208;50.874;6.466;2023-04-03T07:40:50;7.07;;;2.65;;
63114;SDS011;49208;50.874;6.466;2023-04-03T07:43:17;5.13;;;2.28;;
63114;SDS011;49208;50.874;6.466;2023-04-03T07:45:45;5.35;;;2.58;;
63114;SDS011;49208;50.874;6.466;2023-04-03T07:48:12;6.97;;;2.60;;
63114;SDS011;49208;50.874;6.466;2023-04-03T07:50:41;5.15;;;2.92;;
63114;SDS011;49208;50.874;6.466;2023-04-03T07:53:06;5.88;;;2.72;;
63114;SDS011;49208;50.874;6.466;2023-04-03T07:55:33;6.28;;;2.42;;
63114;SDS011;49208;50.874;6.466;2023-04-03T07:57:58;8.10;;;2.65;;
63114;SDS011;49208;50.874;6.466;2023-04-03T08:00:24;12.40;;;3.63;;
63114;SDS011;49208;50.874;6.466;2023-04-03T08:02:49;6.40;;;2.92;;
63114;SDS011;49208;50.874;6.466;2023-04-03T08:05:19;7.47;;;2.85;;
63114;SDS011;49208;50.874;6.466;2023-04-03T08:07:45;7.10;;;3.00;;
63114;SDS011;49208;50.874;6.466;2023-04-03T08:10:11;7.50;;;2.90;;
63114;SDS011;49208;50.874;6.466;2023-04-03T08:12:37;8.63;;;2.78;;
63114;SDS011;49208;50.874;6.466;2023-04-03T08:15:02;6.05;;;3.28;;
63114;SDS011;49208;50.874;6.466;2023-04-03T08:17:28;6.28;;;2.53;;
63114;SDS011;49208;50.874;6.466;2023-04-03T08:19:54;8.25;;;2.65;;
63114;SDS011;49208;50.874;6.466;2023-04-03T08:22:19;8.68;;;2.63;;
63114;SDS011;49208;50.874;6.466;2023-04-03T08:24:45;7.78;;;2.95;;
63114;SDS011;49208;50.874;6.466;2023-04-03T08:27:10;5.40;;;2.60;;
63114;SDS011;49208;50.874;6.466;2023-04-03T08:29:36;7.10;;;2.80;;
63114;SDS011;49208;50.874;6.466;2023-04-03T08:32:02;6.93;;;2.55;;
63114;SDS011;49208;50.874;6.466;2023-04-03T08:34:29;5.88;;;2.35;;
63114;SDS011;49208;50.874;6.466;2023-04-03T08:36:54;6.82;;;2.65;;
63114;SDS011;49208;50.874;6.466;2023-04-03T08:39:20;6.55;;;2.50;;
63114;SDS011;49208;50.874;6.466;2023-04-03T08:41:45;6.93;;;2.42;;
63114;SDS011;49208;50.874;6.466;2023-04-03T08:44:17;7.88;;;2.65;;
63114;SDS011;49208;50.874;6.466;2023-04-03T08:52:17;6.70;;;2.53;;
63114;SDS011;49208;50.874;6.466;2023-04-03T08:54:49;7.88;;;2.22;;
63114;SDS011;49208;50.874;6.466;2023-04-03T08:57:20;5.47;;;2.17;;
63114;SDS011;49208;50.874;6.466;2023-04-03T09:00:19;8.05;;;2.10;;
63114;SDS011;49208;50.874;6.466;2023-04-03T09:02:51;5.05;;;1.83;;
63114;SDS011;49208;50.874;6.466;2023-04-03T09:05:19;6.07;;;1.92;;
63114;SDS011;49208;50.874;6.466;2023-04-03T09:08:36;4.88;;;2.20;;
63114;SDS011;49208;50.874;6.466;2023-04-03T09:14:01;6.60;;;1.70;;
63114;SDS011;49208;50.874;6.466;2023-04-03T09:16:36;6.93;;;1.63;;
63114;SDS011;49208;50.874;6.466;2023-04-03T09:21:53;6.70;;;1.63;;
63114;SDS011;49208;50.874;6.466;2023-04-03T09:24:22;4.05;;;1.30;;
63114;SDS011;49208;50.874;6.466;2023-04-03T09:27:09;5.53;;;1.60;;
63114;SDS011;49208;50.874;6.466;2023-04-03T09:29:37;7.53;;;1.75;;
63114;SDS011;49208;50.874;6.466;2023-04-03T09:32:22;4.10;;;1.50;;
63114;SDS011;49208;50.874;6.466;2023-04-03T09:34:52;5.68;;;1.40;;
63114;SDS011;49208;50.874;6.466;2023-04-03T09:40:03;3.85;;;1.50;;
63114;SDS011;49208;50.874;6.466;2023-04-03T09:45:10;4.20;;;1.27;;
63114;SDS011;49208;50.874;6.466;2023-04-03T09:47:57;7.43;;;1.98;;
63114;SDS011;49208;50.874;6.466;2023-04-03T09:50:38;5.50;;;1.30;;
63114;SDS011;49208;50.874;6.466;2023-04-03T09:53:42;2.55;;;1.17;;
63114;SDS011;49208;50.874;6.466;2023-04-03T09:58:47;4.80;;;1.20;;
63114;SDS011;49208;50.874;6.466;2023-04-03T10:01:25;5.35;;;1.70;;
63114;SDS011;49208;50.874;6.466;2023-04-03T10:06:45;3.47;;;1.40;;
63114;SDS011;49208;50.874;6.466;2023-04-03T10:11:59;2.33;;;1.35;;
63114;SDS011;49208;50.874;6.466;2023-04-03T10:14:30;6.32;;;1.15;;
63114;SDS011;49208;50.874;6.466;2023-04-03T10:22:23;3.47;;;1.27;;
63114;SDS011;49208;50.874;6.466;2023-04-03T10:27:52;4.95;;;1.20;;
63114;SDS011;49208;50.874;6.466;2023-04-03T10:30:26;4.75;;;1.27;;
63114;SDS011;49208;50.874;6.466;2023-04-03T10:46:00;7.07;;;1.70;;
63114;SDS011;49208;50.874;6.466;2023-04-03T10:51:24;3.55;;;1.10;;
63114;SDS011;49208;50.874;6.466;2023-04-03T10:54:05;5.80;;;1.10;;
63114;SDS011;49208;50.874;6.466;2023-04-03T10:56:40;2.47;;;1.02;;
63114;SDS011;49208;50.874;6.466;2023-04-03T11:01:44;3.67;;;1.70;;
63114;SDS011;49208;50.874;6.466;2023-04-03T11:04:14;4.03;;;1.20;;
63114;SDS011;49208;50.874;6.466;2023-04-03T11:06:45;4.88;;;1.20;;
63114;SDS011;49208;50.874;6.466;2023-04-03T11:09:20;3.35;;;1.13;;
63114;SDS011;49208;50.874;6.466;2023-04-03T11:11:47;3.67;;;1.05;;
63114;SDS011;49208;50.874;6.466;2023-04-03T11:16:59;4.10;;;1.10;;
63114;SDS011;49208;50.874;6.466;2023-04-03T11:19:34;4.80;;;1.20;;
63114;SDS011;49208;50.874;6.466;2023-04-03T11:22:08;2.53;;;1.05;;
63114;SDS011;49208;50.874;6.466;2023-04-03T11:24:36;4.70;;;1.65;;
63114;SDS011;49208;50.874;6.466;2023-04-03T11:27:05;3.03;;;1.13;;
63114;SDS011;49208;50.874;6.466;2023-04-03T11:29:37;2.35;;;1.13;;
63114;SDS011;49208;50.874;6.466;2023-04-03T11:34:56;4.78;;;1.27;;
63114;SDS011;49208;50.874;6.466;2023-04-03T11:37:29;2.90;;;1.10;;
63114;SDS011;49208;50.874;6.466;2023-04-03T11:40:07;4.00;;;1.92;;
63114;SDS011;49208;50.874;6.466;2023-04-03T11:42:48;3.85;;;1.50;;
63114;SDS011;49208;50.874;6.466;2023-04-03T12:08:43;2.13;;;0.90;;
63114;SDS011;49208;50.874;6.466;2023-04-03T12:16:07;4.20;;;1.17;;
63114;SDS011;49208;50.874;6.466;2023-04-03T12:21:14;2.83;;;0.90;;
63114;SDS011;49208;50.874;6.466;2023-04-03T12:29:13;2.97;;;0.90;;
63114;SDS011;49208;50.874;6.466;2023-04-03T12:48:37;4.47;;;1.00;;
63114;SDS011;49208;50.874;6.466;2023-04-03T12:56:42;3.75;;;1.52;;
63114;SDS011;49208;50.874;6.466;2023-04-03T13:01:42;4.25;;;0.90;;
63114;SDS011;49208;50.874;6.466;2023-04-03T13:04:09;4.05;;;1.75;;
63114;SDS011;49208;50.874;6.466;2023-04-03T13:06:41;3.03;;;1.08;;
63114;SDS011;49208;50.874;6.466;2023-04-03T13:09:40;3.53;;;0.90;;
63114;SDS011;49208;50.874;6.466;2023-04-03T13:12:03;4.63;;;1.23;;
63114;SDS011;49208;50.874;6.466;2023-04-03T13:14:36;4.78;;;1.17;;
63114;SDS011;49208;50.874;6.466;2023-04-03T13:17:16;5.53;;;2.00;;
63114;SDS011;49208;50.874;6.466;2023-04-03T13:19:42;3.00;;;1.20;;
63114;SDS011;49208;50.874;6.466;2023-04-03T13:24:58;2.83;;;0.82;;
63114;SDS011;49208;50.874;6.466;2023-04-03T13:27:26;4.82;;;1.20;;
63114;SDS011;49208;50.874;6.466;2023-04-03T13:29:57;2.65;;;1.23;;
63114;SDS011;49208;50.874;6.466;2023-04-03T13:32:25;3.95;;;1.10;;
63114;SDS011;49208;50.874;6.466;2023-04-03T13:34:53;2.80;;;1.13;;
63114;SDS011;49208;50.874;6.466;2023-04-03T13:42:31;2.83;;;0.90;;
63114;SDS011;49208;50.874;6.466;2023-04-03T13:47:52;2.15;;;0.90;;
63114;SDS011;49208;50.874;6.466;2023-04-03T13:50:33;3.50;;;0.80;;
63114;SDS011;49208;50.874;6.466;2023-04-03T13:53:19;4.07;;;1.17;;
63114;SDS011;49208;50.874;6.466;2023-04-03T13:55:53;3.40;;;1.08;;
63114;SDS011;49208;50.874;6.466;2023-04-03T13:58:28;3.88;;;1.15;;
63114;SDS011;49208;50.874;6.466;2023-04-03T14:06:17;3.08;;;1.20;;
63114;SDS011;49208;50.874;6.466;2023-04-03T14:08:43;3.45;;;1.10;;
63114;SDS011;49208;50.874;6.466;2023-04-03T14:11:24;5.43;;;1.10;;
63114;SDS011;49208;50.874;6.466;2023-04-03T14:14:02;3.85;;;1.13;;
63114;SDS011;49208;50.874;6.466;2023-04-03T14:16:37;3.17;;;1.00;;
63114;SDS011;49208;50.874;6.466;2023-04-03T14:19:05;4.13;;;0.90;;
63114;SDS011;49208;50.874;6.466;2023-04-03T14:21:31;3.20;;;0.80;;
63114;SDS011;49208;50.874;6.466;2023-04-03T14:23:57;4.72;;;1.10;;
63114;SDS011;49208;50.874;6.466;2023-04-03T14:26:23;3.15;;;0.90;;
63114;SDS011;49208;50.874;6.466;2023-04-03T14:28:52;1.83;;;0.85;;
63114;SDS011;49208;50.874;6.466;2023-04-03T14:31:19;3.05;;;0.80;;
63114;SDS011;49208;50.874;6.466;2023-04-03T14:33:45;3.45;;;1.02;;
63114;SDS011;49208;50.874;6.466;2023-04-03T14:38:50;2.42;;;0.93;;
63114;SDS011;49208;50.874;6.466;2023-04-03T14:41:17;4.28;;;2.55;;
63114;SDS011;49208;50.874;6.466;2023-04-03T14:43:45;3.05;;;1.13;;
63114;SDS011;49208;50.874;6.466;2023-04-03T14:46:53;4.15;;;1.20;;
63114;SDS011;49208;50.874;6.466;2023-04-03T14:49:01;2.22;;;0.82;;
63114;SDS011;49208;50.874;6.466;2023-04-03T14:51:32;2.80;;;1.10;;
63114;SDS011;49208;50.874;6.466;2023-04-03T14:53:58;2.72;;;1.10;;
63114;SDS011;49208;50.874;6.466;2023-04-03T14:56:27;4.38;;;1.38;;
63114;SDS011;49208;50.874;6.466;2023-04-03T14:58:58;4.70;;;1.30;;
63114;SDS011;49208;50.874;6.466;2023-04-03T15:01:26;2.90;;;0.85;;
63114;SDS011;49208;50.874;6.466;2023-04-03T15:03:52;2.08;;;0.80;;
63114;SDS011;49208;50.874;6.466;2023-04-03T15:06:18;3.95;;;1.00;;
63114;SDS011;49208;50.874;6.466;2023-04-03T15:08:44;4.35;;;1.23;;
63114;SDS011;49208;50.874;6.466;2023-04-03T15:11:11;5.25;;;1.63;;
63114;SDS011;49208;50.874;6.466;2023-04-03T15:13:38;4.78;;;0.98;;
63114;SDS011;49208;50.874;6.466;2023-04-03T15:16:04;3.63;;;1.20;;
63114;SDS011;49208;50.874;6.466;2023-04-03T15:18:31;2.75;;;1.00;;
63114;SDS011;49208;50.874;6.466;2023-04-03T15:21:01;2.05;;;0.75;;
63114;SDS011;49208;50.874;6.466;2023-04-03T15:23:27;5.00;;;1.20;;
63114;SDS011;49208;50.874;6.466;2023-04-03T15:25:53;4.35;;;1.17;;
63114;SDS011;49208;50.874;6.466;2023-04-03T15:28:52;3.33;;;1.40;;
63114;SDS011;49208;50.874;6.466;2023-04-03T15:31:11;3.35;;;1.00;;
63114;SDS011;49208;50.874;6.466;2023-04-03T15:33:36;4.93;;;1.15;;
63114;SDS011;49208;50.874;6.466;2023-04-03T15:36:02;3.83;;;1.30;;
63114;SDS011;49208;50.874;6.466;2023-04-03T15:38:28;3.27;;;1.30;;
63114;SDS011;49208;50.874;6.466;2023-04-03T15:40:54;8.55;;;1.35;;
63114;SDS011;49208;50.874;6.466;2023-04-03T15:43:20;4.60;;;1.30;;
63114;SDS011;49208;50.874;6.466;2023-04-03T15:45:46;2.90;;;1.10;;
63114;SDS011;49208;50.874;6.466;2023-04-03T15:48:12;4.00;;;1.10;;
63114;SDS011;49208;50.874;6.466;2023-04-03T15:50:39;2.60;;;0.98;;
63114;SDS011;49208;50.874;6.466;2023-04-03T15:53:05;5.28;;;1.77;;
63114;SDS011;49208;50.874;6.466;2023-04-03T15:55:32;2.63;;;1.10;;
63114;SDS011;49208;50.874;6.466;2023-04-03T15:57:59;3.70;;;1.08;;
63114;SDS011;49208;50.874;6.466;2023-04-03T16:00:26;4.27;;;1.43;;
63114;SDS011;49208;50.874;6.466;2023-04-03T16:02:53;4.68;;;1.60;;
63114;SDS011;49208;50.874;6.466;2023-04-03T16:05:22;6.25;;;1.45;;
63114;SDS011;49208;50.874;6.466;2023-04-03T16:07:47;4.90;;;1.40;;
63114;SDS011;49208;50.874;6.466;2023-04-03T16:10:14;6.63;;;1.40;;
63114;SDS011;49208;50.874;6.466;2023-04-03T16:12:41;2.85;;;1.15;;
63114;SDS011;49208;50.874;6.466;2023-04-03T16:15:06;3.15;;;1.10;;
63114;SDS011;49208;50.874;6.466;2023-04-03T16:17:32;4.63;;;1.33;;
63114;SDS011;49208;50.874;6.466;2023-04-03T16:19:59;5.30;;;1.30;;
63114;SDS011;49208;50.874;6.466;2023-04-03T16:22:26;2.65;;;1.10;;
63114;SDS011;49208;50.874;6.466;2023-04-03T16:24:53;4.55;;;1.13;;
63114;SDS011;49208;50.874;6.466;2023-04-03T16:27:19;3.30;;;1.00;;
63114;SDS011;49208;50.874;6.466;2023-04-03T16:29:45;3.72;;;1.30;;
63114;SDS011;49208;50.874;6.466;2023-04-03T16:32:10;7.20;;;1.55;;
63114;SDS011;49208;50.874;6.466;2023-04-03T16:34:38;4.10;;;1.48;;
63114;SDS011;49208;50.874;6.466;2023-04-03T16:37:05;4.57;;;1.33;;
63114;SDS011;49208;50.874;6.466;2023-04-03T16:39:33;3.35;;;1.15;;
63114;SDS011;49208;50.874;6.466;2023-04-03T16:41:59;5.63;;;1.13;;
63114;SDS011;49208;50.874;6.466;2023-04-03T16:44:25;4.05;;;1.58;;
63114;SDS011;49208;50.874;6.466;2023-04-03T16:46:51;2.45;;;1.00;;
63114;SDS011;49208;50.874;6.466;2023-04-03T16:49:16;3.72;;;1.25;;
63114;SDS011;49208;50.874;6.466;2023-04-03T16:51:42;7.93;;;1.70;;
63114;SDS011;49208;50.874;6.466;2023-04-03T16:54:07;4.15;;;1.38;;
63114;SDS011;49208;50.874;6.466;2023-04-03T16:56:35;9.00;;;1.42;;
63114;SDS011;49208;50.874;6.466;2023-04-03T16:59:00;5.65;;;1.23;;
63114;SDS011;49208;50.874;6.466;2023-04-03T17:01:26;8.27;;;1.73;;
63114;SDS011;49208;50.874;6.466;2023-04-03T17:03:51;6.95;;;1.60;;
63114;SDS011;49208;50.874;6.466;2023-04-03T17:06:18;5.05;;;1.50;;
63114;SDS011;49208;50.874;6.466;2023-04-03T17:08:46;5.85;;;1.80;;
63114;SDS011;49208;50.874;6.466;2023-04-03T17:13:38;11.88;;;4.50;;
63114;SDS011;49208;50.874;6.466;2023-04-03T17:16:03;6.20;;;2.20;;
63114;SDS011;49208;50.874;6.466;2023-04-03T17:18:32;6.82;;;1.70;;
63114;SDS011;49208;50.874;6.466;2023-04-03T17:20:58;7.28;;;3.10;;
63114;SDS011;49208;50.874;6.466;2023-04-03T17:23:24;6.97;;;1.88;;
63114;SDS011;49208;50.874;6.466;2023-04-03T17:25:51;7.13;;;1.67;;
63114;SDS011;49208;50.874;6.466;2023-04-03T17:28:18;5.28;;;2.08;;
63114;SDS011;49208;50.874;6.466;2023-04-03T17:30:43;5.13;;;1.50;;
63114;SDS011;49208;50.874;6.466;2023-04-03T17:33:08;8.00;;;1.55;;
63114;SDS011;49208;50.874;6.466;2023-04-03T17:35:34;5.47;;;1.85;;
63114;SDS011;49208;50.874;6.466;2023-04-03T17:37:59;5.53;;;1.67;;
63114;SDS011;49208;50.874;6.466;2023-04-03T17:40:25;5.90;;;1.95;;
63114;SDS011;49208;50.874;6.466;2023-04-03T17:42:51;12.32;;;5.30;;
63114;SDS011;49208;50.874;6.466;2023-04-03T17:45:16;5.95;;;3.15;;
63114;SDS011;49208;50.874;6.466;2023-04-03T17:47:41;6.53;;;2.33;;
63114;SDS011;49208;50.874;6.466;2023-04-03T17:50:07;7.18;;;2.05;;
63114;SDS011;49208;50.874;6.466;2023-04-03T17:52:33;5.60;;;2.50;;
63114;SDS011;49208;50.874;6.466;2023-04-03T17:54:58;3.20;;;1.58;;
63114;SDS011;49208;50.874;6.466;2023-04-03T17:57:24;6.05;;;1.73;;
63114;SDS011;49208;50.874;6.466;2023-04-03T17:59:49;3.83;;;1.38;;
63114;SDS011;49208;50.874;6.466;2023-04-03T18:02:17;5.47;;;1.77;;
63114;SDS011;49208;50.874;6.466;2023-04-03T18:04:43;3.60;;;1.35;;
63114;SDS011;49208;50.874;6.466;2023-04-03T18:07:08;3.70;;;1.38;;
63114;SDS011;49208;50.874;6.466;2023-04-03T18:09:34;7.60;;;1.73;;
63114;SDS011;49208;50.874;6.466;2023-04-03T18:12:02;3.70;;;1.43;;
63114;SDS011;49208;50.874;6.466;2023-04-03T18:14:29;4.75;;;1.60;;
63114;SDS011;49208;50.874;6.466;2023-04-03T18:16:57;4.28;;;1.50;;
63114;SDS011;49208;50.874;6.466;2023-04-03T18:19:23;6.75;;;1.83;;
63114;SDS011;49208;50.874;6.466;2023-04-03T18:21:50;10.48;;;3.92;;
63114;SDS011;49208;50.874;6.466;2023-04-03T18:24:19;6.22;;;3.17;;
63114;SDS011;49208;50.874;6.466;2023-04-03T18:26:48;8.63;;;3.15;;
63114;SDS011;49208;50.874;6.466;2023-04-03T18:29:15;8.30;;;2.67;;
63114;SDS011;49208;50.874;6.466;2023-04-03T18:31:41;5.82;;;1.77;;
63114;SDS011;49208;50.874;6.466;2023-04-03T18:34:10;7.07;;;1.77;;
63114;SDS011;49208;50.874;6.466;2023-04-03T18:36:36;10.10;;;2.20;;
63114;SDS011;49208;50.874;6.466;2023-04-03T18:39:02;5.57;;;2.08;;
63114;SDS011;49208;50.874;6.466;2023-04-03T18:41:29;8.88;;;2.25;;
63114;SDS011;49208;50.874;6.466;2023-04-03T18:43:56;5.97;;;2.17;;
63114;SDS011;49208;50.874;6.466;2023-04-03T18:46:23;7.13;;;1.85;;
63114;SDS011;49208;50.874;6.466;2023-04-03T18:48:49;8.13;;;1.85;;
63114;SDS011;49208;50.874;6.466;2023-04-03T18:51:15;5.93;;;1.95;;
63114;SDS011;49208;50.874;6.466;2023-04-03T18:53:40;9.02;;;2.72;;
63114;SDS011;49208;50.874;6.466;2023-04-03T18:56:06;5.45;;;2.35;;
63114;SDS011;49208;50.874;6.466;2023-04-03T18:58:32;5.93;;;2.17;;
63114;SDS011;49208;50.874;6.466;2023-04-03T19:00:57;12.25;;;3.03;;
63114;SDS011;49208;50.874;6.466;2023-04-03T19:03:24;8.77;;;2.03;;
63114;SDS011;49208;50.874;6.466;2023-04-03T19:05:50;4.85;;;2.05;;
63114;SDS011;49208;50.874;6.466;2023-04-03T19:08:15;5.18;;;1.50;;
63114;SDS011;49208;50.874;6.466;2023-04-03T19:10:41;9.35;;;2.50;;
63114;SDS011;49208;50.874;6.466;2023-04-03T19:13:06;7.05;;;2.15;;
63114;SDS011;49208;50.874;6.466;2023-04-03T19:15:32;7.25;;;2.30;;
63114;SDS011;49208;50.874;6.466;2023-04-03T19:17:57;8.48;;;2.25;;
63114;SDS011;49208;50.874;6.466;2023-04-03T19:20:22;4.40;;;1.40;;
63114;SDS011;49208;50.874;6.466;2023-04-03T19:22:48;7.20;;;2.00;;
63114;SDS011;49208;50.874;6.466;2023-04-03T19:25:13;5.68;;;1.88;;
63114;SDS011;49208;50.874;6.466;2023-04-03T19:27:39;12.23;;;2.40;;
63114;SDS011;49208;50.874;6.466;2023-04-03T19:30:06;4.20;;;1.58;;
63114;SDS011;49208;50.874;6.466;2023-04-03T19:34:58;5.45;;;1.80;;
63114;SDS011;49208;50.874;6.466;2023-04-03T19:37:24;5.45;;;2.20;;
63114;SDS011;49208;50.874;6.466;2023-04-03T19:39:51;9.13;;;1.80;;
63114;SDS011;49208;50.874;6.466;2023-04-03T19:42:17;4.00;;;1.58;;
63114;SDS011;49208;50.874;6.466;2023-04-03T19:44:42;5.32;;;1.90;;
63114;SDS011;49208;50.874;6.466;2023-04-03T19:47:09;4.55;;;1.95;;
63114;SDS011;49208;50.874;6.466;2023-04-03T19:49:36;2.60;;;1.20;;
63114;SDS011;49208;50.874;6.466;2023-04-03T19:52:01;7.13;;;1.50;;
63114;SDS011;49208;50.874;6.466;2023-04-03T19:54:27;5.38;;;1.80;;
63114;SDS011;49208;50.874;6.466;2023-04-03T19:56:52;3.80;;;1.63;;
63114;SDS011;49208;50.874;6.466;2023-04-03T19:59:17;3.38;;;1.40;;
63114;SDS011;49208;50.874;6.466;2023-04-03T20:01:43;4.85;;;2.13;;
63114;SDS011;49208;50.874;6.466;2023-04-03T20:04:10;5.72;;;1.55;;
63114;SDS011;49208;50.874;6.466;2023-04-03T20:06:35;3.85;;;1.40;;
63114;SDS011;49208;50.874;6.466;2023-04-03T20:09:01;5.28;;;1.52;;
63114;SDS011;49208;50.874;6.466;2023-04-03T20:11:26;5.85;;;1.98;;
63114;SDS011;49208;50.874;6.466;2023-04-03T20:13:52;5.63;;;1.60;;
63114;SDS011;49208;50.874;6.466;2023-04-03T20:16:18;8.00;;;3.13;;
63114;SDS011;49208;50.874;6.466;2023-04-03T20:21:11;5.80;;;2.10;;
63114;SDS011;49208;50.874;6.466;2023-04-03T20:23:37;6.45;;;2.00;;
63114;SDS011;49208;50.874;6.466;2023-04-03T20:26:06;5.85;;;1.98;;
63114;SDS011;49208;50.874;6.466;2023-04-03T20:28:33;8.40;;;2.00;;
63114;SDS011;49208;50.874;6.466;2023-04-03T20:30:58;5.28;;;1.90;;
63114;SDS011;49208;50.874;6.466;2023-04-03T20:33:26;4.68;;;1.60;;
63114;SDS011;49208;50.874;6.466;2023-04-03T20:35:52;4.78;;;1.85;;
63114;SDS011;49208;50.874;6.466;2023-04-03T20:38:20;4.03;;;2.13;;
63114;SDS011;49208;50.874;6.466;2023-04-03T20:40:46;4.18;;;1.67;;
63114;SDS011;49208;50.874;6.466;2023-04-03T20:43:11;6.70;;;2.20;;
63114;SDS011;49208;50.874;6.466;2023-04-03T20:45:37;6.78;;;2.83;;
63114;SDS011;49208;50.874;6.466;2023-04-03T20:48:03;3.33;;;1.60;;
63114;SDS011;49208;50.874;6.466;2023-04-03T20:50:30;4.13;;;1.70;;
63114;SDS011;49208;50.874;6.466;2023-04-03T20:52:56;5.68;;;1.90;;
63114;SDS011;49208;50.874;6.466;2023-04-03T20:55:22;5.60;;;1.95;;
63114;SDS011;49208;50.874;6.466;2023-04-03T20:57:48;6.55;;;1.60;;
63114;SDS011;49208;50.874;6.466;2023-04-03T21:00:14;6.18;;;1.42;;
63114;SDS011;49208;50.874;6.466;2023-04-03T21:02:43;3.67;;;1.65;;
63114;SDS011;49208;50.874;6.466;2023-04-03T21:05:10;4.55;;;2.00;;
63114;SDS011;49208;50.874;6.466;2023-04-03T21:19:19;5.32;;;1.45;;
63114;SDS011;49208;50.874;6.466;2023-04-03T21:21:46;5.30;;;1.80;;
63114;SDS011;49208;50.874;6.466;2023-04-03T21:24:12;5.40;;;1.80;;
63114;SDS011;49208;50.874;6.466;2023-04-03T21:29:06;7.22;;;1.77;;
63114;SDS011;49208;50.874;6.466;2023-04-03T21:34:15;7.68;;;1.60;;
63114;SDS011;49208;50.874;6.466;2023-04-03T21:36:41;5.85;;;1.80;;
63114;SDS011;49208;50.874;6.466;2023-04-03T21:39:07;4.32;;;1.50;;
63114;SDS011;49208;50.874;6.466;2023-04-03T21:41:33;6.00;;;1.92;;
63114;SDS011;49208;50.874;6.466;2023-04-03T21:43:59;4.95;;;1.85;;
63114;SDS011;49208;50.874;6.466;2023-04-03T21:46:24;5.18;;;1.70;;
63114;SDS011;49208;50.874;6.466;2023-04-03T21:48:50;7.32;;;2.10;;
63114;SDS011;49208;50.874;6.466;2023-04-03T21:51:16;15.07;;;2.15;;
63114;SDS011;49208;50.874;6.466;2023-04-03T21:53:41;5.25;;;1.40;;
63114;SDS011;49208;50.874;6.466;2023-04-03T21:56:08;7.30;;;2.10;;
63114;SDS011;49208;50.874;6.466;2023-04-03T21:58:35;11.10;;;2.10;;
